sensor_id;sensor_type;location;lat;lon;timestamp;pressure;altitude;pressure_sealevel;temperature;humidity
829;BME280;396;52.558;13.188;2023-07-20T00:01:26;100559.31;;;17.21;100.00
829;BME280;396;52.558;13.188;2023-07-20T00:03:52;100552.81;;;17.13;100.00
829;BME280;396;52.558;13.188;2023-07-20T00:06:21;100564.59;;;17.13;100.00
829;BME280;396;52.558;13.188;2023-07-20T00:08:48;100562.88;;;17.09;100.00
829;BME280;396;52.558;13.188;2023-07-20T00:11:14;100553.84;;;17.08;100.00
829;BME280;396;52.558;13.188;2023-07-20T00:13:42;100560.72;;;17.02;100.00
829;BME280;396;52.558;13.188;2023-07-20T00:16:09;100561.50;;;17.03;100.00
829;BME280;396;52.558;13.188;2023-07-20T00:18:36;100565.16;;;17.07;100.00
829;BME280;396;52.558;13.188;2023-07-20T00:21:02;100563.34;;;16.99;100.00
829;BME280;396;52.558;13.188;2023-07-20T00:23:29;100560.84;;;16.94;100.00
829;BME280;396;52.558;13.188;2023-07-20T00:25:56;100560.84;;;16.94;100.00
829;BME280;396;52.558;13.188;2023-07-20T00:28:22;100571.78;;;16.94;100.00
829;BME280;396;52.558;13.188;2023-07-20T00:30:50;100568.94;;;16.90;100.00
829;BME280;396;52.558;13.188;2023-07-20T00:33:17;100567.25;;;16.85;100.00
829;BME280;396;52.558;13.188;2023-07-20T00:35:44;100577.75;;;16.83;100.00
829;BME280;396;52.558;13.188;2023-07-20T00:38:11;100569.78;;;16.78;100.00
829;BME280;396;52.558;13.188;2023-07-20T00:40:38;100570.97;;;16.69;100.00
829;BME280;396;52.558;13.188;2023-07-20T00:43:05;100566.66;;;16.68;100.00
829;BME280;396;52.558;13.188;2023-07-20T00:45:33;100565.63;;;16.60;100.00
829;BME280;396;52.558;13.188;2023-07-20T00:48:02;100566.75;;;16.59;100.00
829;BME280;396;52.558;13.188;2023-07-20T00:50:30;100571.78;;;16.57;100.00
829;BME280;396;52.558;13.188;2023-07-20T00:52:58;100580.66;;;16.54;100.00
829;BME280;396;52.558;13.188;2023-07-20T00:55:24;100571.91;;;16.48;100.00
829;BME280;396;52.558;13.188;2023-07-20T00:57:51;100576.56;;;16.48;100.00
829;BME280;396;52.558;13.188;2023-07-20T01:00:19;100566.75;;;16.47;100.00
829;BME280;396;52.558;13.188;2023-07-20T01:02:46;100568.38;;;16.48;100.00
829;BME280;396;52.558;13.188;2023-07-20T01:05:14;100582.25;;;16.55;100.00
829;BME280;396;52.558;13.188;2023-07-20T01:07:46;100577.94;;;16.54;100.00
829;BME280;396;52.558;13.188;2023-07-20T01:10:20;100573.75;;;16.56;100.00
829;BME280;396;52.558;13.188;2023-07-20T01:12:52;100572.94;;;16.56;100.00
829;BME280;396;52.558;13.188;2023-07-20T01:15:19;100577.16;;;16.53;100.00
829;BME280;396;52.558;13.188;2023-07-20T01:17:45;100579.75;;;16.50;100.00
829;BME280;396;52.558;13.188;2023-07-20T01:20:15;100577.81;;;16.50;100.00
829;BME280;396;52.558;13.188;2023-07-20T01:23:07;100569.28;;;16.39;100.00
829;BME280;396;52.558;13.188;2023-07-20T01:26:02;100563.25;;;16.34;100.00
829;BME280;396;52.558;13.188;2023-07-20T01:29:06;100558.44;;;16.31;100.00
829;BME280;396;52.558;13.188;2023-07-20T01:31:36;100561.53;;;16.29;100.00
829;BME280;396;52.558;13.188;2023-07-20T01:34:05;100567.31;;;16.28;100.00
829;BME280;396;52.558;13.188;2023-07-20T01:36:36;100568.13;;;16.28;100.00
829;BME280;396;52.558;13.188;2023-07-20T01:39:04;100567.78;;;16.30;100.00
829;BME280;396;52.558;13.188;2023-07-20T01:41:33;100570.63;;;16.33;100.00
829;BME280;396;52.558;13.188;2023-07-20T01:44:00;100562.41;;;16.33;100.00
829;BME280;396;52.558;13.188;2023-07-20T01:46:27;100563.34;;;16.25;100.00
829;BME280;396;52.558;13.188;2023-07-20T01:48:55;100557.41;;;16.23;100.00
829;BME280;396;52.558;13.188;2023-07-20T01:51:22;100569.59;;;16.26;100.00
829;BME280;396;52.558;13.188;2023-07-20T01:53:49;100569.03;;;16.32;100.00
829;BME280;396;52.558;13.188;2023-07-20T01:56:16;100562.88;;;16.35;100.00
829;BME280;396;52.558;13.188;2023-07-20T01:58:42;100571.44;;;16.34;100.00
829;BME280;396;52.558;13.188;2023-07-20T02:01:09;100578.81;;;16.33;100.00
829;BME280;396;52.558;13.188;2023-07-20T02:03:36;100570.41;;;16.26;100.00
829;BME280;396;52.558;13.188;2023-07-20T02:06:04;100570.19;;;16.31;100.00
829;BME280;396;52.558;13.188;2023-07-20T02:08:30;100573.03;;;16.35;100.00
829;BME280;396;52.558;13.188;2023-07-20T02:10:57;100569.81;;;16.33;100.00
829;BME280;396;52.558;13.188;2023-07-20T02:13:24;100573.34;;;16.33;100.00
829;BME280;396;52.558;13.188;2023-07-20T02:15:50;100577.34;;;16.36;100.00
829;BME280;396;52.558;13.188;2023-07-20T02:18:17;100570.97;;;16.32;100.00
829;BME280;396;52.558;13.188;2023-07-20T02:20:43;100572.91;;;16.31;100.00
829;BME280;396;52.558;13.188;2023-07-20T02:23:11;100574.97;;;16.34;100.00
829;BME280;396;52.558;13.188;2023-07-20T02:25:38;100568.34;;;16.35;100.00
829;BME280;396;52.558;13.188;2023-07-20T02:28:06;100571.53;;;16.37;100.00
829;BME280;396;52.558;13.188;2023-07-20T02:30:33;100575.41;;;16.36;100.00
829;BME280;396;52.558;13.188;2023-07-20T02:33:00;100580.88;;;16.36;100.00
829;BME280;396;52.558;13.188;2023-07-20T02:35:26;100580.22;;;16.39;100.00
829;BME280;396;52.558;13.188;2023-07-20T02:37:53;100578.72;;;16.42;100.00
829;BME280;396;52.558;13.188;2023-07-20T02:40:21;100585.22;;;16.50;100.00
829;BME280;396;52.558;13.188;2023-07-20T02:42:48;100583.41;;;16.54;100.00
829;BME280;396;52.558;13.188;2023-07-20T02:45:16;100574.41;;;16.53;100.00
829;BME280;396;52.558;13.188;2023-07-20T02:47:42;100584.56;;;16.53;100.00
829;BME280;396;52.558;13.188;2023-07-20T02:50:09;100583.41;;;16.54;100.00
829;BME280;396;52.558;13.188;2023-07-20T02:52:38;100584.91;;;16.51;100.00
829;BME280;396;52.558;13.188;2023-07-20T02:55:06;100590.91;;;16.45;100.00
829;BME280;396;52.558;13.188;2023-07-20T02:57:34;100589.56;;;16.38;100.00
829;BME280;396;52.558;13.188;2023-07-20T03:00:01;100587.38;;;16.44;100.00
829;BME280;396;52.558;13.188;2023-07-20T03:02:29;100585.44;;;16.45;100.00
829;BME280;396;52.558;13.188;2023-07-20T03:04:56;100592.06;;;16.44;100.00
829;BME280;396;52.558;13.188;2023-07-20T03:07:27;100587.28;;;16.40;100.00
829;BME280;396;52.558;13.188;2023-07-20T03:09:54;100587.28;;;16.40;100.00
829;BME280;396;52.558;13.188;2023-07-20T03:12:21;100591.81;;;16.36;100.00
829;BME280;396;52.558;13.188;2023-07-20T03:14:49;100596.38;;;16.32;100.00
829;BME280;396;52.558;13.188;2023-07-20T03:17:15;100589.44;;;16.35;100.00
829;BME280;396;52.558;13.188;2023-07-20T03:19:42;100595.66;;;16.23;100.00
829;BME280;396;52.558;13.188;2023-07-20T03:22:09;100599.28;;;16.15;100.00
829;BME280;396;52.558;13.188;2023-07-20T03:24:35;100596.56;;;16.15;100.00
829;BME280;396;52.558;13.188;2023-07-20T03:27:02;100595.31;;;16.12;100.00
829;BME280;396;52.558;13.188;2023-07-20T03:29:29;100593.59;;;16.08;100.00
829;BME280;396;52.558;13.188;2023-07-20T03:31:59;100605.44;;;16.12;100.00
829;BME280;396;52.558;13.188;2023-07-20T03:34:25;100603.50;;;16.12;100.00
829;BME280;396;52.558;13.188;2023-07-20T03:36:52;100603.59;;;16.04;100.00
829;BME280;396;52.558;13.188;2023-07-20T03:39:18;100604.75;;;16.03;100.00
829;BME280;396;52.558;13.188;2023-07-20T03:41:45;100614.75;;;15.99;100.00
829;BME280;396;52.558;13.188;2023-07-20T03:44:12;100619.31;;;16.07;100.00
829;BME280;396;52.558;13.188;2023-07-20T03:46:38;100614.84;;;16.02;100.00
829;BME280;396;52.558;13.188;2023-07-20T03:49:06;100614.97;;;16.06;100.00
829;BME280;396;52.558;13.188;2023-07-20T03:51:34;100616.38;;;16.12;100.00
829;BME280;396;52.558;13.188;2023-07-20T03:54:01;100627.31;;;16.12;100.00
829;BME280;396;52.558;13.188;2023-07-20T03:56:27;100617.09;;;16.21;100.00
829;BME280;396;52.558;13.188;2023-07-20T03:58:54;100626.44;;;16.32;100.00
829;BME280;396;52.558;13.188;2023-07-20T04:01:20;100635.78;;;16.31;100.00
829;BME280;396;52.558;13.188;2023-07-20T04:03:47;100626.22;;;16.25;100.00
829;BME280;396;52.558;13.188;2023-07-20T04:06:15;100625.06;;;16.26;100.00
829;BME280;396;52.558;13.188;2023-07-20T04:08:42;100631.69;;;16.25;100.00
829;BME280;396;52.558;13.188;2023-07-20T04:11:09;100628.03;;;16.33;100.00
829;BME280;396;52.558;13.188;2023-07-20T04:13:36;100621.88;;;16.36;100.00
829;BME280;396;52.558;13.188;2023-07-20T04:16:03;100615.97;;;16.34;100.00
829;BME280;396;52.558;13.188;2023-07-20T04:18:29;100620.44;;;16.39;100.00
829;BME280;396;52.558;13.188;2023-07-20T04:20:56;100622.59;;;16.46;100.00
829;BME280;396;52.558;13.188;2023-07-20T04:23:24;100628.84;;;16.46;100.00
829;BME280;396;52.558;13.188;2023-07-20T04:25:51;100623.50;;;16.50;100.00
829;BME280;396;52.558;13.188;2023-07-20T04:28:17;100621.00;;;16.45;100.00
829;BME280;396;52.558;13.188;2023-07-20T04:30:44;100628.41;;;16.44;100.00
829;BME280;396;52.558;13.188;2023-07-20T04:33:11;100627.50;;;16.52;100.00
829;BME280;396;52.558;13.188;2023-07-20T04:35:50;100637.44;;;16.57;100.00
829;BME280;396;52.558;13.188;2023-07-20T04:38:18;100630.25;;;16.52;100.00
829;BME280;396;52.558;13.188;2023-07-20T04:40:47;100637.75;;;16.55;100.00
829;BME280;396;52.558;13.188;2023-07-20T04:43:14;100627.25;;;16.45;100.00
829;BME280;396;52.558;13.188;2023-07-20T04:45:40;100638.31;;;16.49;100.00
829;BME280;396;52.558;13.188;2023-07-20T04:48:10;100637.66;;;16.52;100.00
829;BME280;396;52.558;13.188;2023-07-20T04:50:38;100638.78;;;16.51;100.00
829;BME280;396;52.558;13.188;2023-07-20T04:53:04;100635.94;;;16.47;100.00
829;BME280;396;52.558;13.188;2023-07-20T04:55:31;100633.66;;;16.49;100.00
829;BME280;396;52.558;13.188;2023-07-20T04:58:00;100631.97;;;16.57;100.00
829;BME280;396;52.558;13.188;2023-07-20T05:00:27;100641.97;;;16.53;100.00
829;BME280;396;52.558;13.188;2023-07-20T05:02:53;100639.59;;;16.63;100.00
829;BME280;396;52.558;13.188;2023-07-20T05:05:20;100640.84;;;16.66;100.00
829;BME280;396;52.558;13.188;2023-07-20T05:07:47;100651.31;;;16.64;100.00
829;BME280;396;52.558;13.188;2023-07-20T05:10:13;100653.72;;;16.65;100.00
829;BME280;396;52.558;13.188;2023-07-20T05:12:40;100651.78;;;16.66;100.00
829;BME280;396;52.558;13.188;2023-07-20T05:15:09;100648.13;;;16.62;100.00
829;BME280;396;52.558;13.188;2023-07-20T05:17:36;100648.13;;;16.62;100.00
829;BME280;396;52.558;13.188;2023-07-20T05:20:03;100648.38;;;16.69;100.00
829;BME280;396;52.558;13.188;2023-07-20T05:22:30;100638.91;;;16.67;100.00
829;BME280;396;52.558;13.188;2023-07-20T05:24:57;100639.81;;;16.58;100.00
829;BME280;396;52.558;13.188;2023-07-20T05:27:23;100646.78;;;16.68;100.00
829;BME280;396;52.558;13.188;2023-07-20T05:29:50;100649.78;;;16.75;100.00
829;BME280;396;52.558;13.188;2023-07-20T05:32:18;100652.97;;;16.89;100.00
829;BME280;396;52.558;13.188;2023-07-20T05:34:44;100657.31;;;17.03;100.00
829;BME280;396;52.558;13.188;2023-07-20T05:37:11;100656.63;;;17.06;100.00
829;BME280;396;52.558;13.188;2023-07-20T05:39:38;100660.28;;;17.10;100.00
829;BME280;396;52.558;13.188;2023-07-20T05:42:05;100656.16;;;17.16;100.00
829;BME280;396;52.558;13.188;2023-07-20T05:44:32;100657.06;;;17.20;100.00
829;BME280;396;52.558;13.188;2023-07-20T05:46:58;100652.84;;;17.23;100.00
829;BME280;396;52.558;13.188;2023-07-20T05:49:27;100659.31;;;17.30;100.00
829;BME280;396;52.558;13.188;2023-07-20T05:51:54;100669.13;;;17.44;100.00
829;BME280;396;52.558;13.188;2023-07-20T05:54:26;100669.59;;;17.46;100.00
829;BME280;396;52.558;13.188;2023-07-20T05:56:54;100676.53;;;17.43;100.00
829;BME280;396;52.558;13.188;2023-07-20T05:59:21;100668.22;;;17.39;100.00
829;BME280;396;52.558;13.188;2023-07-20T06:01:49;100675.53;;;17.35;100.00
829;BME280;396;52.558;13.188;2023-07-20T06:04:15;100671.09;;;17.19;100.00
829;BME280;396;52.558;13.188;2023-07-20T06:06:44;100677.25;;;17.15;100.00
829;BME280;396;52.558;13.188;2023-07-20T06:09:11;100678.72;;;17.13;100.00
829;BME280;396;52.558;13.188;2023-07-20T06:11:37;100676.47;;;17.15;100.00
829;BME280;396;52.558;13.188;2023-07-20T06:14:04;100679.75;;;17.21;100.00
829;BME280;396;52.558;13.188;2023-07-20T06:16:31;100679.75;;;17.33;100.00
829;BME280;396;52.558;13.188;2023-07-20T06:18:59;100679.50;;;17.38;100.00
829;BME280;396;52.558;13.188;2023-07-20T06:21:26;100687.06;;;17.41;100.00
829;BME280;396;52.558;13.188;2023-07-20T06:23:54;100686.03;;;17.33;100.00
829;BME280;396;52.558;13.188;2023-07-20T06:26:21;100684.44;;;17.32;100.00
829;BME280;396;52.558;13.188;2023-07-20T06:28:47;100684.69;;;17.27;100.00
829;BME280;396;52.558;13.188;2023-07-20T06:31:14;100685.00;;;17.38;100.00
829;BME280;396;52.558;13.188;2023-07-20T06:33:40;100688.06;;;17.49;100.00
829;BME280;396;52.558;13.188;2023-07-20T06:36:07;100683.81;;;17.63;100.00
829;BME280;396;52.558;13.188;2023-07-20T06:38:33;100690.53;;;17.66;95.21
829;BME280;396;52.558;13.188;2023-07-20T06:43:28;100687.84;;;17.54;93.55
829;BME280;396;52.558;13.188;2023-07-20T06:46:44;100694.56;;;17.44;93.86
829;BME280;396;52.558;13.188;2023-07-20T06:49:24;100690.47;;;17.26;95.23
829;BME280;396;52.558;13.188;2023-07-20T06:55:32;100689.56;;;17.34;94.29
829;BME280;396;52.558;13.188;2023-07-20T06:58:20;100686.13;;;17.49;93.59
829;BME280;396;52.558;13.188;2023-07-20T07:01:10;100683.25;;;17.58;94.19
829;BME280;396;52.558;13.188;2023-07-20T07:04:00;100683.75;;;17.88;94.92
829;BME280;396;52.558;13.188;2023-07-20T07:06:27;100676.19;;;17.97;92.02
829;BME280;396;52.558;13.188;2023-07-20T07:08:56;100695.19;;;18.18;90.81
829;BME280;396;52.558;13.188;2023-07-20T07:11:26;100692.66;;;18.25;88.55
829;BME280;396;52.558;13.188;2023-07-20T07:13:53;100702.34;;;18.23;85.42
829;BME280;396;52.558;13.188;2023-07-20T07:16:21;100699.75;;;18.14;83.96
829;BME280;396;52.558;13.188;2023-07-20T07:18:54;100696.63;;;18.00;85.48
829;BME280;396;52.558;13.188;2023-07-20T07:21:26;100700.56;;;18.14;87.17
829;BME280;396;52.558;13.188;2023-07-20T07:23:53;100702.34;;;18.23;86.64
829;BME280;396;52.558;13.188;2023-07-20T07:26:22;100705.75;;;18.32;85.96
829;BME280;396;52.558;13.188;2023-07-20T07:28:49;100699.31;;;18.40;85.98
829;BME280;396;52.558;13.188;2023-07-20T07:31:15;100696.59;;;18.56;87.02
829;BME280;396;52.558;13.188;2023-07-20T07:33:44;100699.59;;;18.66;86.87
829;BME280;396;52.558;13.188;2023-07-20T07:36:10;100703.78;;;18.76;80.72
829;BME280;396;52.558;13.188;2023-07-20T07:38:37;100696.19;;;18.85;81.99
829;BME280;396;52.558;13.188;2023-07-20T07:41:03;100703.34;;;18.90;81.28
829;BME280;396;52.558;13.188;2023-07-20T07:43:30;100708.56;;;19.11;79.86
829;BME280;396;52.558;13.188;2023-07-20T07:45:57;100703.00;;;19.07;77.12
829;BME280;396;52.558;13.188;2023-07-20T07:48:23;100700.53;;;19.18;76.84
829;BME280;396;52.558;13.188;2023-07-20T07:50:53;100712.91;;;19.28;78.80
829;BME280;396;52.558;13.188;2023-07-20T07:53:19;100716.44;;;19.44;76.41
829;BME280;396;52.558;13.188;2023-07-20T07:55:47;100710.84;;;19.40;76.53
829;BME280;396;52.558;13.188;2023-07-20T07:58:14;100708.63;;;19.46;77.58
829;BME280;396;52.558;13.188;2023-07-20T08:00:40;100714.81;;;19.43;75.59
829;BME280;396;52.558;13.188;2023-07-20T08:03:08;100717.38;;;19.52;74.74
829;BME280;396;52.558;13.188;2023-07-20T08:05:35;100713.13;;;19.54;75.14
829;BME280;396;52.558;13.188;2023-07-20T08:08:03;100718.25;;;19.56;73.80
829;BME280;396;52.558;13.188;2023-07-20T08:10:30;100722.16;;;19.71;75.11
829;BME280;396;52.558;13.188;2023-07-20T08:12:56;100727.66;;;19.71;75.49
829;BME280;396;52.558;13.188;2023-07-20T08:15:23;100725.03;;;19.78;74.36
829;BME280;396;52.558;13.188;2023-07-20T08:17:50;100730.44;;;19.74;74.49
829;BME280;396;52.558;13.188;2023-07-20T08:20:17;100733.66;;;19.76;72.84
829;BME280;396;52.558;13.188;2023-07-20T08:22:44;100727.38;;;19.76;72.72
829;BME280;396;52.558;13.188;2023-07-20T08:25:12;100734.66;;;19.68;73.65
829;BME280;396;52.558;13.188;2023-07-20T08:27:39;100735.47;;;19.53;73.02
829;BME280;396;52.558;13.188;2023-07-20T08:30:07;100731.97;;;19.56;73.34
829;BME280;396;52.558;13.188;2023-07-20T08:32:34;100729.63;;;19.38;70.94
829;BME280;396;52.558;13.188;2023-07-20T08:35:01;100736.59;;;19.52;71.55
829;BME280;396;52.558;13.188;2023-07-20T08:37:28;100730.59;;;19.62;72.09
829;BME280;396;52.558;13.188;2023-07-20T08:39:54;100728.28;;;19.64;71.31
829;BME280;396;52.558;13.188;2023-07-20T08:42:22;100734.16;;;19.62;70.77
829;BME280;396;52.558;13.188;2023-07-20T08:44:49;100734.16;;;19.82;71.84
829;BME280;396;52.558;13.188;2023-07-20T08:47:18;100735.03;;;19.86;71.71
829;BME280;396;52.558;13.188;2023-07-20T08:49:48;100734.19;;;20.01;67.93
829;BME280;396;52.558;13.188;2023-07-20T08:52:15;100730.88;;;20.11;68.04
829;BME280;396;52.558;13.188;2023-07-20T08:54:41;100731.28;;;20.33;68.05
829;BME280;396;52.558;13.188;2023-07-20T08:57:11;100728.00;;;20.47;68.89
829;BME280;396;52.558;13.188;2023-07-20T08:59:41;100743.00;;;20.49;65.35
829;BME280;396;52.558;13.188;2023-07-20T09:02:14;100729.25;;;20.49;66.16
829;BME280;396;52.558;13.188;2023-07-20T09:04:44;100728.22;;;20.57;65.70
829;BME280;396;52.558;13.188;2023-07-20T09:07:11;100728.00;;;20.47;65.79
829;BME280;396;52.558;13.188;2023-07-20T09:09:40;100723.94;;;20.40;66.19
829;BME280;396;52.558;13.188;2023-07-20T09:12:13;100727.75;;;20.52;65.22
829;BME280;396;52.558;13.188;2023-07-20T09:14:42;100733.81;;;20.61;64.60
829;BME280;396;52.558;13.188;2023-07-20T09:17:12;100732.16;;;20.56;63.09
829;BME280;396;52.558;13.188;2023-07-20T09:19:45;100729.66;;;20.32;64.03
829;BME280;396;52.558;13.188;2023-07-20T09:22:12;100743.94;;;20.18;65.64
829;BME280;396;52.558;13.188;2023-07-20T09:24:39;100741.56;;;19.97;67.30
829;BME280;396;52.558;13.188;2023-07-20T09:27:07;100738.00;;;19.77;70.55
829;BME280;396;52.558;13.188;2023-07-20T09:29:34;100743.25;;;19.51;72.85
829;BME280;396;52.558;13.188;2023-07-20T09:32:03;100743.31;;;19.19;75.97
829;BME280;396;52.558;13.188;2023-07-20T09:34:30;100748.50;;;18.77;80.95
829;BME280;396;52.558;13.188;2023-07-20T09:36:58;100755.41;;;18.43;82.81
829;BME280;396;52.558;13.188;2023-07-20T09:39:25;100759.97;;;18.10;84.47
829;BME280;396;52.558;13.188;2023-07-20T09:41:52;100752.72;;;18.02;85.35
829;BME280;396;52.558;13.188;2023-07-20T09:44:19;100754.09;;;17.96;86.54
829;BME280;396;52.558;13.188;2023-07-20T09:46:47;100758.88;;;17.99;85.41
829;BME280;396;52.558;13.188;2023-07-20T09:49:17;100758.53;;;18.01;84.66
829;BME280;396;52.558;13.188;2023-07-20T09:51:44;100750.53;;;17.96;86.14
829;BME280;396;52.558;13.188;2023-07-20T09:54:11;100758.28;;;18.06;86.97
829;BME280;396;52.558;13.188;2023-07-20T09:56:39;100755.41;;;18.14;85.42
829;BME280;396;52.558;13.188;2023-07-20T09:59:07;100764.38;;;18.27;82.08
829;BME280;396;52.558;13.188;2023-07-20T10:01:34;100758.91;;;18.27;81.10
829;BME280;396;52.558;13.188;2023-07-20T10:04:03;100763.34;;;18.32;80.14
829;BME280;396;52.558;13.188;2023-07-20T10:06:32;100758.06;;;18.39;80.48
829;BME280;396;52.558;13.188;2023-07-20T10:09:01;100758.59;;;18.45;80.47
829;BME280;396;52.558;13.188;2023-07-20T10:11:30;100764.72;;;18.54;79.23
829;BME280;396;52.558;13.188;2023-07-20T10:13:59;100768.09;;;18.63;77.53
829;BME280;396;52.558;13.188;2023-07-20T10:16:28;100768.53;;;18.77;78.15
829;BME280;396;52.558;13.188;2023-07-20T10:19:03;100771.19;;;18.89;77.27
829;BME280;396;52.558;13.188;2023-07-20T10:21:33;100757.47;;;18.89;76.51
829;BME280;396;52.558;13.188;2023-07-20T10:24:02;100759.94;;;18.95;77.71
829;BME280;396;52.558;13.188;2023-07-20T10:26:29;100762.44;;;19.00;78.22
829;BME280;396;52.558;13.188;2023-07-20T10:28:57;100764.66;;;19.10;77.89
829;BME280;396;52.558;13.188;2023-07-20T10:31:25;100757.81;;;19.35;75.65
829;BME280;396;52.558;13.188;2023-07-20T10:33:54;100759.22;;;19.61;72.89
829;BME280;396;52.558;13.188;2023-07-20T10:36:24;100769.75;;;19.75;71.75
829;BME280;396;52.558;13.188;2023-07-20T10:38:55;100762.66;;;19.74;71.77
829;BME280;396;52.558;13.188;2023-07-20T10:41:27;100765.75;;;19.72;72.64
829;BME280;396;52.558;13.188;2023-07-20T10:43:58;100760.56;;;19.86;71.70
829;BME280;396;52.558;13.188;2023-07-20T10:46:42;100762.09;;;19.84;72.45
829;BME280;396;52.558;13.188;2023-07-20T10:49:10;100757.00;;;20.02;70.61
829;BME280;396;52.558;13.188;2023-07-20T10:51:42;100766.69;;;20.15;69.51
829;BME280;396;52.558;13.188;2023-07-20T10:54:34;100769.88;;;20.17;69.46
829;BME280;396;52.558;13.188;2023-07-20T10:57:22;100756.56;;;20.19;70.72
829;BME280;396;52.558;13.188;2023-07-20T10:59:48;100764.38;;;20.17;68.78
829;BME280;396;52.558;13.188;2023-07-20T11:02:18;100757.13;;;20.28;67.45
829;BME280;396;52.558;13.188;2023-07-20T11:04:46;100759.66;;;20.37;68.13
829;BME280;396;52.558;13.188;2023-07-20T11:07:15;100760.25;;;20.46;65.28
829;BME280;396;52.558;13.188;2023-07-20T11:09:44;100756.63;;;20.61;65.25
829;BME280;396;52.558;13.188;2023-07-20T11:12:12;100755.19;;;20.90;65.60
829;BME280;396;52.558;13.188;2023-07-20T11:14:40;100756.09;;;21.21;61.80
829;BME280;396;52.558;13.188;2023-07-20T11:17:11;100746.16;;;21.39;61.08
829;BME280;396;52.558;13.188;2023-07-20T11:19:39;100757.06;;;21.59;62.70
829;BME280;396;52.558;13.188;2023-07-20T11:22:06;100760.28;;;21.91;59.17
829;BME280;396;52.558;13.188;2023-07-20T11:24:34;100763.31;;;22.42;58.46
829;BME280;396;52.558;13.188;2023-07-20T11:27:03;100753.59;;;22.93;56.47
829;BME280;396;52.558;13.188;2023-07-20T11:29:29;100765.09;;;23.47;54.56
829;BME280;396;52.558;13.188;2023-07-20T11:31:57;100761.88;;;23.37;55.10
829;BME280;396;52.558;13.188;2023-07-20T11:34:24;100767.09;;;23.02;53.85
829;BME280;396;52.558;13.188;2023-07-20T11:36:51;100765.38;;;22.53;55.16
829;BME280;396;52.558;13.188;2023-07-20T11:39:19;100763.69;;;22.11;57.07
829;BME280;396;52.558;13.188;2023-07-20T11:41:47;100755.28;;;21.70;57.52
829;BME280;396;52.558;13.188;2023-07-20T11:44:17;100761.63;;;21.25;59.51
829;BME280;396;52.558;13.188;2023-07-20T11:46:44;100765.69;;;20.85;64.48
829;BME280;396;52.558;13.188;2023-07-20T11:49:12;100766.09;;;20.25;68.02
829;BME280;396;52.558;13.188;2023-07-20T11:51:40;100769.31;;;19.73;72.09
829;BME280;396;52.558;13.188;2023-07-20T11:54:08;100761.00;;;19.37;75.34
829;BME280;396;52.558;13.188;2023-07-20T11:56:35;100764.03;;;19.16;77.05
829;BME280;396;52.558;13.188;2023-07-20T11:59:02;100758.97;;;19.03;77.85
829;BME280;396;52.558;13.188;2023-07-20T12:01:30;100754.47;;;19.10;78.20
829;BME280;396;52.558;13.188;2023-07-20T12:03:59;100762.72;;;19.26;76.41
829;BME280;396;52.558;13.188;2023-07-20T12:06:27;100752.16;;;19.44;76.71
829;BME280;396;52.558;13.188;2023-07-20T12:08:55;100763.31;;;19.86;73.55
829;BME280;396;52.558;13.188;2023-07-20T12:11:32;100759.94;;;20.32;70.75
829;BME280;396;52.558;13.188;2023-07-20T12:14:00;100771.84;;;20.55;69.80
829;BME280;396;52.558;13.188;2023-07-20T12:16:34;100763.88;;;20.50;66.87
829;BME280;396;52.558;13.188;2023-07-20T12:19:07;100760.34;;;20.50;67.07
829;BME280;396;52.558;13.188;2023-07-20T12:22:06;100761.19;;;20.54;64.23
829;BME280;396;52.558;13.188;2023-07-20T12:24:40;100762.44;;;20.79;65.87
829;BME280;396;52.558;13.188;2023-07-20T12:27:15;100762.38;;;21.22;62.70
829;BME280;396;52.558;13.188;2023-07-20T12:29:58;100754.44;;;22.26;59.47
829;BME280;396;52.558;13.188;2023-07-20T12:32:26;100759.88;;;22.90;56.93
829;BME280;396;52.558;13.188;2023-07-20T12:35:00;100757.22;;;23.52;46.25
829;BME280;396;52.558;13.188;2023-07-20T12:37:27;100739.72;;;24.00;45.11
829;BME280;396;52.558;13.188;2023-07-20T12:39:55;100756.56;;;24.60;43.71
829;BME280;396;52.558;13.188;2023-07-20T12:42:25;100758.63;;;25.24;41.65
829;BME280;396;52.558;13.188;2023-07-20T12:45:03;100755.78;;;25.67;42.31
829;BME280;396;52.558;13.188;2023-07-20T12:47:31;100746.53;;;26.16;42.52
829;BME280;396;52.558;13.188;2023-07-20T12:49:58;100749.56;;;26.47;40.24
829;BME280;396;52.558;13.188;2023-07-20T12:52:34;100755.06;;;26.54;38.30
829;BME280;396;52.558;13.188;2023-07-20T12:55:05;100759.59;;;26.89;37.46
829;BME280;396;52.558;13.188;2023-07-20T12:57:33;100758.25;;;27.57;37.48
829;BME280;396;52.558;13.188;2023-07-20T13:00:00;100760.88;;;28.09;38.12
829;BME280;396;52.558;13.188;2023-07-20T13:02:31;100756.31;;;28.22;36.09
829;BME280;396;52.558;13.188;2023-07-20T13:05:02;100753.25;;;28.13;35.20
829;BME280;396;52.558;13.188;2023-07-20T13:07:36;100742.66;;;28.01;35.74
829;BME280;396;52.558;13.188;2023-07-20T13:10:24;100741.59;;;27.91;37.21
829;BME280;396;52.558;13.188;2023-07-20T13:13:05;100745.75;;;28.06;34.91
829;BME280;396;52.558;13.188;2023-07-20T13:15:32;100743.22;;;27.47;36.36
829;BME280;396;52.558;13.188;2023-07-20T13:18:00;100737.19;;;26.59;37.21
829;BME280;396;52.558;13.188;2023-07-20T13:22:55;100732.75;;;26.65;38.68
829;BME280;396;52.558;13.188;2023-07-20T13:25:21;100732.28;;;27.29;36.99
829;BME280;396;52.558;13.188;2023-07-20T13:27:48;100725.81;;;27.39;37.87
829;BME280;396;52.558;13.188;2023-07-20T13:30:14;100728.28;;;27.30;37.65
829;BME280;396;52.558;13.188;2023-07-20T13:32:42;100731.63;;;27.56;37.66
829;BME280;396;52.558;13.188;2023-07-20T13:35:11;100733.72;;;27.82;37.29